Devils Lake, ND (58301)

7:42 AM CDT on June 29, 2017 (GMT -0500)
Lake Region RadioWorks | | Change Station
Active Advisory: Dense Fog Advisory

Elev 1431 ft 48.11 °N, 98.87 °W | Updated 1 minute ago

Clear
Clear
60.9 °F
Feels Like 60.9 °F
N
2.0
Wind Variable Wind from West
Gusts 2.0 mph

Today
High -- | Low -- °F
--% Chance of Precip.
Yesterday
High -- | Low -- °F
Precip. -- in
Pressure 29.81 in
Visibility 10.0 miles
Clouds Clear
Dew Point 60 °F
Humidity 95%
Rainfall 0.00 in
Snow Depth Not available.
5:38 AM 9:39 PM
Waxing Crescent, 35% visible
METAR KDVL 291156Z AUTO 00000KT 10SM CLR 14/14 A2977 RMK AO2 SLP093 70005 T01390139 10156 20117 50005
Pressure 29.81 in
Visibility 10.0 miles
Clouds Clear
Dew Point 60 °F
Humidity 95%
Rainfall 0.00 in
Snow Depth Not available.
5:38 AM 9:39 PM
Waxing Crescent, 35% visible
METAR KDVL 291156Z AUTO 00000KT 10SM CLR 14/14 A2977 RMK AO2 SLP093 70005 T01390139 10156 20117 50005

Get Your Daily Forecast Email!

Thanks for signing up!

Be on the lookout for a verification email in your inbox.

You'll start receiving severe weather alerts in your inbox..

×

10-Day Weather Forecast

Almanac

Astronomy

Jun. 29, 2017 Rise Set
Actual Time
Civil Twilight
Nautical Twilight
Astronomical Twilight
Moon
Length of Visible Light
Length of Day
Tomorrow will be .
, % of the Moon is Illuminated

Today's Extremes

State Highs State Lows

Community

WunderPhotos

Category 6

Welcome to Category 6. This is the collective home for Weather Underground's featured writeups by Dr. Jeff Masters (right), Bob Henson (left), Chris Burt, and other regular contributors.

Nearby

Air Quality

  Air Quality AQ Index Pollutant
Not available.

Snow Depth

Station Depth Elevation

Earthquake Activity

City Distance Mag. Time & Date
Minimum magnitude displayed is 2.5.

Coastal Water Temperatures

Place Temperature

Stations

Nearby Weather Stations

Station Location Temp. Windchill Dew Point Humidity Wind Precip. Elev Updated Type
                   

Watches & Warnings

Dense Fog Advisory
Issued: 6:07 AM CDT Jun. 29, 2017 – National Weather Service

... Dense fog advisory remains in effect until 9 am CDT this
morning...

* timing... near zero visibility at times early this morning.

* Impacts... limited visibilities will make travel very difficult.

Precautionary/preparedness actions...

A dense fog advisory means visibilities will frequently be
reduced to less than one quarter mile. If driving, slow down, use
your headlights, and leave plenty of distance ahead of you.